createdAt,value
2023-01-31T00:02:00.581Z,95975.69
2023-01-31T00:04:28.737Z,95975.16
2023-01-31T00:06:58.109Z,95978.16
2023-01-31T00:09:26.139Z,95973.53
2023-01-31T00:11:54.502Z,95969.63
2023-01-31T00:14:22.741Z,95966.31
2023-01-31T00:16:52.181Z,95966.31
2023-01-31T00:19:20.264Z,95974.41
2023-01-31T00:21:48.292Z,95960.28
2023-01-31T00:24:17.825Z,95965.06
2023-01-31T00:26:46.371Z,95967.63
2023-01-31T00:29:14.351Z,95963.44
2023-01-31T00:31:42.545Z,95964.69
2023-01-31T00:34:12.618Z,95958.97
2023-01-31T00:36:44.223Z,95958.97
2023-01-31T00:39:12.435Z,95963.88
2023-01-31T00:41:41.828Z,95966.91
2023-01-31T00:44:09.802Z,95967.16
2023-01-31T00:46:39.932Z,95975.81
2023-01-31T00:49:08.140Z,95979.34
2023-01-31T00:51:36.542Z,95981.78
2023-01-31T00:54:04.774Z,95978.03
2023-01-31T00:56:33.809Z,95977.22
2023-01-31T00:59:04.497Z,95974.13
2023-01-31T01:01:33.278Z,95966.69
2023-01-31T01:04:01.362Z,95968.31
2023-01-31T01:06:34.898Z,95961.28
2023-01-31T01:09:03.316Z,95962.88
2023-01-31T01:11:33.454Z,95961.94
2023-01-31T01:14:04.429Z,95959.94
2023-01-31T01:16:35.536Z,95968.09
2023-01-31T01:19:06.119Z,95970.53
2023-01-31T01:21:39.065Z,95965.63
2023-01-31T01:24:09.529Z,95977.31
2023-01-31T01:26:40.550Z,95977.03
2023-01-31T01:29:10.363Z,95984.31
2023-01-31T01:31:39.438Z,95984.03
2023-01-31T01:34:09.801Z,95986.19
2023-01-31T01:36:39.209Z,95984.72
2023-01-31T01:39:10.092Z,95982.97
2023-01-31T01:41:40.033Z,95982.69
2023-01-31T01:44:48.527Z,95983.53
2023-01-31T01:47:23.115Z,95988.69
2023-01-31T01:49:56.117Z,95986.78
2023-01-31T01:52:25.517Z,95985.16
2023-01-31T01:54:57.294Z,95988.16
2023-01-31T01:57:31.783Z,95990.88
2023-01-31T02:00:10.071Z,95991.16
2023-01-31T02:02:44.168Z,95991.16
2023-01-31T02:05:15.864Z,95992.78
2023-01-31T02:07:44.352Z,95997.91
2023-01-31T02:10:17.468Z,96003.72
2023-01-31T02:12:46.143Z,96007.38
2023-01-31T02:15:15.923Z,96006.28
2023-01-31T02:17:44.063Z,96006.28
2023-01-31T02:20:26.695Z,96009.81
2023-01-31T02:23:10.639Z,96011.72
2023-01-31T02:26:11.281Z,96016.44
2023-01-31T02:29:16.587Z,96030.25
2023-01-31T02:32:24.990Z,96026.34
2023-01-31T02:35:04.638Z,96023.09
2023-01-31T02:37:45.735Z,96019.59
2023-01-31T02:40:21.721Z,96022.81
2023-01-31T02:42:56.183Z,96022.03
2023-01-31T02:45:31.729Z,96018.53
2023-01-31T02:48:14.758Z,96031.66
2023-01-31T02:51:00.412Z,96023.53
2023-01-31T02:53:34.406Z,96022.34
2023-01-31T02:56:18.342Z,96023.94
2023-01-31T02:58:53.152Z,96026.13
2023-01-31T03:01:25.463Z,96029.13
2023-01-31T03:03:55.019Z,96026.81
2023-01-31T03:07:00.376Z,96022.63
2023-01-31T03:09:49.705Z,96033.69
2023-01-31T03:12:30.723Z,96033.97
2023-01-31T03:15:18.027Z,96041.00
2023-01-31T03:17:56.995Z,96049.66
2023-01-31T03:20:31.149Z,96053.72
2023-01-31T03:23:06.150Z,96055.34
2023-01-31T03:25:38.315Z,96059.66
2023-01-31T03:28:13.116Z,96056.41
2023-01-31T03:30:44.747Z,96061.28
2023-01-31T03:33:20.673Z,96069.13
2023-01-31T03:35:57.029Z,96067.63
2023-01-31T03:38:32.505Z,96073.72
2023-01-31T03:41:08.749Z,96068.88
2023-01-31T03:43:44.490Z,96073.72
2023-01-31T03:46:17.988Z,96075.34
2023-01-31T03:48:50.893Z,96082.38
2023-01-31T03:51:22.486Z,96089.94
2023-01-31T03:53:56.033Z,96091.03
2023-01-31T03:56:33.717Z,96094.28
2023-01-31T03:59:08.584Z,96107.78
2023-01-31T04:01:41.753Z,96102.94
2023-01-31T04:04:12.912Z,96101.31
2023-01-31T04:06:41.219Z,96099.69
2023-01-31T04:09:11.784Z,96102.50
2023-01-31T04:11:42.167Z,96099.13
2023-01-31T04:14:11.523Z,96103.16
2023-01-31T04:16:39.518Z,96103.16
2023-01-31T04:19:07.470Z,96106.69
2023-01-31T04:21:35.477Z,96105.88
2023-01-31T04:24:03.546Z,96116.72
2023-01-31T04:26:33.308Z,96113.44
2023-01-31T04:29:01.417Z,96119.00
2023-01-31T04:31:29.493Z,96114.94
2023-01-31T04:33:58.443Z,96121.81
2023-01-31T04:36:27.091Z,96126.16
2023-01-31T04:38:55.068Z,96122.63
2023-01-31T04:41:23.048Z,96129.66
2023-01-31T04:43:52.384Z,96132.38
2023-01-31T04:46:20.934Z,96135.06
2023-01-31T04:48:48.960Z,96134.94
2023-01-31T04:51:16.962Z,96132.91
2023-01-31T04:53:45.224Z,96127.50
2023-01-31T04:56:13.253Z,96134.53
2023-01-31T04:58:41.575Z,96133.19
2023-01-31T05:01:11.191Z,96135.34
2023-01-31T05:03:39.231Z,96140.06
2023-01-31T05:06:08.614Z,96138.59
2023-01-31T05:08:36.813Z,96139.00
2023-01-31T05:11:07.543Z,96142.91
2023-01-31T05:13:38.179Z,96139.41
2023-01-31T05:16:08.624Z,96134.78
2023-01-31T05:18:38.390Z,96140.50
2023-01-31T05:21:07.836Z,96145.38
2023-01-31T05:23:36.186Z,96146.84
2023-01-31T05:26:04.949Z,96146.28
2023-01-31T05:28:32.996Z,96151.00
2023-01-31T05:31:06.847Z,96142.09
2023-01-31T05:33:37.159Z,96148.88
2023-01-31T05:36:05.979Z,96144.41
2023-01-31T05:38:34.044Z,96140.75
2023-01-31T05:41:02.047Z,96149.13
2023-01-31T05:43:30.037Z,96148.59
2023-01-31T05:45:58.146Z,96145.38
2023-01-31T05:48:26.110Z,96148.75
2023-01-31T05:50:55.428Z,96144.81
2023-01-31T05:53:23.554Z,96144.53
2023-01-31T05:55:51.522Z,96143.72
2023-01-31T05:58:19.474Z,96154.13
2023-01-31T06:00:47.455Z,96161.44
2023-01-31T06:03:15.649Z,96156.72
2023-01-31T06:05:43.652Z,96163.88
2023-01-31T06:08:13.874Z,96156.44
2023-01-31T06:10:41.855Z,96159.16
2023-01-31T06:13:09.860Z,96161.44
2023-01-31T06:15:38.081Z,96171.03
2023-01-31T06:18:06.201Z,96170.09
2023-01-31T06:20:34.159Z,96162.13
2023-01-31T06:23:02.290Z,96175.38
2023-01-31T06:25:32.048Z,96166.44
2023-01-31T06:28:00.113Z,96168.06
2023-01-31T06:30:28.193Z,96177.41
2023-01-31T06:32:56.478Z,96184.56
2023-01-31T06:35:24.474Z,96182.28
2023-01-31T06:37:52.832Z,96183.47
2023-01-31T06:40:21.060Z,96179.13
2023-01-31T06:42:50.401Z,96190.75
2023-01-31T06:45:19.203Z,96205.38
2023-01-31T06:47:47.592Z,96210.25
2023-01-31T06:50:15.551Z,96211.44
2023-01-31T06:52:44.013Z,96217.00
2023-01-31T06:55:12.622Z,96214.00
2023-01-31T06:57:48.110Z,96208.06
2023-01-31T07:00:19.674Z,96205.88
2023-01-31T07:02:48.141Z,96205.59
2023-01-31T07:05:16.375Z,96207.22
2023-01-31T07:07:44.391Z,96212.78
2023-01-31T07:10:13.753Z,96212.09
2023-01-31T07:12:41.869Z,96218.84
2023-01-31T07:15:11.493Z,96225.66
2023-01-31T07:17:40.990Z,96225.91
2023-01-31T07:20:10.778Z,96230.53
2023-01-31T07:22:38.784Z,96239.19
2023-01-31T07:25:07.586Z,96245.44
2023-01-31T07:27:35.626Z,96250.28
2023-01-31T07:30:03.648Z,96252.59
2023-01-31T07:32:32.300Z,96251.41
2023-01-31T07:35:01.711Z,96244.34
2023-01-31T07:37:30.008Z,96238.25
2023-01-31T07:39:57.986Z,96243.41
2023-01-31T07:42:25.951Z,96238.13
2023-01-31T07:44:54.845Z,96249.22
2023-01-31T07:47:22.850Z,96254.63
2023-01-31T07:49:51.453Z,96260.84
2023-01-31T07:52:20.791Z,96246.25
2023-01-31T07:54:49.145Z,96250.84
2023-01-31T07:57:17.923Z,96261.13
2023-01-31T07:59:45.887Z,96260.06
2023-01-31T08:02:32.993Z,96257.31
2023-01-31T08:05:01.371Z,96265.19
2023-01-31T08:07:31.838Z,96269.78
2023-01-31T08:09:59.863Z,96269.25
2023-01-31T08:12:27.829Z,96278.19
2023-01-31T08:14:55.990Z,96279.53
2023-01-31T08:17:24.011Z,96286.00
2023-01-31T08:19:52.026Z,96293.59
2023-01-31T08:22:20.163Z,96287.31
2023-01-31T08:24:49.504Z,96284.09
2023-01-31T08:27:18.426Z,96294.53
2023-01-31T08:29:46.400Z,96293.81
2023-01-31T08:32:14.459Z,96291.38
2023-01-31T08:34:43.572Z,96298.03
2023-01-31T08:37:11.637Z,96307.81
2023-01-31T08:39:39.823Z,96307.66
2023-01-31T08:42:09.188Z,96322.00
2023-01-31T08:44:38.528Z,96313.88
2023-01-31T08:47:06.636Z,96327.31
2023-01-31T08:49:37.048Z,96330.69
2023-01-31T08:52:05.446Z,96334.47
2023-01-31T08:54:33.397Z,96330.66
2023-01-31T08:57:01.372Z,96336.34
2023-01-31T08:59:31.391Z,96330.63
2023-01-31T09:01:59.508Z,96338.34
2023-01-31T09:04:27.587Z,96342.81
2023-01-31T09:06:55.884Z,96345.78
2023-01-31T09:09:25.993Z,96351.75
2023-01-31T09:11:54.050Z,96341.78
2023-01-31T09:14:22.054Z,96344.34
2023-01-31T09:16:51.453Z,96347.53
2023-01-31T09:19:19.626Z,96341.56
2023-01-31T09:21:47.622Z,96342.06
2023-01-31T09:24:15.637Z,96341.19
2023-01-31T09:26:43.667Z,96339.88
2023-01-31T09:29:11.673Z,96345.84
2023-01-31T09:31:39.759Z,96358.06
2023-01-31T09:34:09.203Z,96356.66
2023-01-31T09:36:37.137Z,96358.25
2023-01-31T09:39:05.386Z,96362.78
2023-01-31T09:41:38.138Z,96357.34
2023-01-31T09:44:11.740Z,96353.00
2023-01-31T09:46:43.557Z,96363.81
2023-01-31T09:49:20.337Z,96369.28
2023-01-31T09:51:53.396Z,96372.81
2023-01-31T09:54:29.685Z,96369.38
2023-01-31T09:57:06.961Z,96377.78
2023-01-31T09:59:44.235Z,96379.13
2023-01-31T10:02:38.724Z,96377.16
2023-01-31T10:05:23.109Z,96377.38
2023-01-31T10:08:00.775Z,96393.16
2023-01-31T10:10:37.585Z,96391.53
2023-01-31T10:13:14.168Z,96383.88
2023-01-31T10:15:46.279Z,96377.66
2023-01-31T10:18:19.239Z,96384.44
2023-01-31T10:20:53.435Z,96387.38
2023-01-31T10:23:27.893Z,96389.22
2023-01-31T10:26:00.755Z,96395.84
2023-01-31T10:28:35.729Z,96399.25
2023-01-31T10:31:13.359Z,96400.31
2023-01-31T10:33:49.452Z,96395.28
2023-01-31T10:36:27.964Z,96388.66
2023-01-31T10:39:01.594Z,96387.25
2023-01-31T10:41:42.302Z,96385.19
2023-01-31T10:44:20.995Z,96381.72
2023-01-31T10:46:49.433Z,96380.59
2023-01-31T10:49:18.277Z,96378.38
2023-01-31T10:52:06.831Z,96372.38
2023-01-31T10:54:43.900Z,96368.94
2023-01-31T10:57:11.988Z,96364.16
2023-01-31T10:59:44.477Z,96364.81
2023-01-31T11:02:21.153Z,96363.97
2023-01-31T11:04:52.370Z,96369.38
2023-01-31T11:07:22.700Z,96363.97
2023-01-31T11:09:54.067Z,96355.56
2023-01-31T11:12:23.078Z,96353.06
2023-01-31T11:15:08.246Z,96338.78
2023-01-31T11:17:39.038Z,96335.72
2023-01-31T11:20:08.084Z,96329.31
2023-01-31T11:22:38.781Z,96319.97
2023-01-31T11:25:08.026Z,96310.28
2023-01-31T11:27:40.781Z,96304.13
2023-01-31T11:30:22.931Z,96310.59
2023-01-31T11:32:51.270Z,96316.16
2023-01-31T11:35:28.699Z,96323.63
2023-01-31T11:38:00.072Z,96309.72
2023-01-31T11:40:31.450Z,96307.00
2023-01-31T11:43:01.418Z,96299.28
2023-01-31T11:45:32.154Z,96291.09
2023-01-31T11:48:08.352Z,96285.75
2023-01-31T11:50:39.125Z,96284.63
2023-01-31T11:53:18.787Z,96277.19
2023-01-31T11:55:48.973Z,96271.69
2023-01-31T11:58:22.209Z,96269.75
2023-01-31T12:00:57.132Z,96258.75
2023-01-31T12:03:26.429Z,96252.66
2023-01-31T12:06:04.907Z,96233.56
2023-01-31T12:08:37.326Z,96226.31
2023-01-31T12:11:07.044Z,96225.19
2023-01-31T12:13:47.715Z,96230.66
2023-01-31T12:16:18.858Z,96227.78
2023-01-31T12:18:59.626Z,96219.69
2023-01-31T12:21:41.349Z,96211.59
2023-01-31T12:24:24.376Z,96204.50
2023-01-31T12:26:56.354Z,96208.03
2023-01-31T12:29:48.976Z,96211.25
2023-01-31T12:32:41.768Z,96209.31
2023-01-31T12:35:27.577Z,96220.81
2023-01-31T12:38:06.108Z,96214.69
2023-01-31T12:40:50.282Z,96217.09
2023-01-31T12:43:39.053Z,96218.38
2023-01-31T12:46:16.258Z,96215.81
2023-01-31T12:49:05.478Z,96211.59
2023-01-31T12:51:44.648Z,96216.59
2023-01-31T12:54:25.282Z,96203.47
2023-01-31T12:57:02.966Z,96205.72
2023-01-31T12:59:46.625Z,96204.31
2023-01-31T13:02:33.790Z,96188.31
2023-01-31T13:05:10.667Z,96192.50
2023-01-31T13:07:44.044Z,96187.31
2023-01-31T13:10:26.324Z,96184.72
2023-01-31T13:12:58.179Z,96173.41
2023-01-31T13:15:34.054Z,96181.47
2023-01-31T13:18:06.144Z,96166.44
2023-01-31T13:20:40.019Z,96169.50
2023-01-31T13:23:14.461Z,96169.44
2023-01-31T13:25:45.832Z,96173.34
2023-01-31T13:28:20.112Z,96169.09
2023-01-31T13:30:56.403Z,96167.16
2023-01-31T13:33:33.742Z,96171.38
2023-01-31T13:36:09.728Z,96171.31
2023-01-31T13:38:42.380Z,96165.50
2023-01-31T13:41:18.733Z,96167.41
2023-01-31T13:43:48.098Z,96156.31
2023-01-31T13:46:21.178Z,96154.38
2023-01-31T13:48:55.982Z,96150.53
2023-01-31T13:51:29.278Z,96146.94
2023-01-31T13:54:02.414Z,96142.97
2023-01-31T13:56:34.928Z,96140.38
2023-01-31T13:59:08.397Z,96144.00
2023-01-31T14:01:44.328Z,96145.84
2023-01-31T14:04:33.627Z,96134.03
2023-01-31T14:07:23.941Z,96125.00
2023-01-31T14:10:37.858Z,96129.66
2023-01-31T14:13:38.809Z,96123.72
2023-01-31T14:16:39.950Z,96132.84
2023-01-31T14:19:46.897Z,96129.00
2023-01-31T14:22:17.155Z,96121.22
2023-01-31T14:25:04.675Z,96118.63
2023-01-31T14:27:35.949Z,96128.34
2023-01-31T14:30:35.839Z,96114.84
2023-01-31T14:33:09.183Z,96128.22
2023-01-31T14:35:51.895Z,96116.81
2023-01-31T14:38:29.608Z,96118.31
2023-01-31T14:41:07.055Z,96133.41
2023-01-31T14:43:50.127Z,96132.25
2023-01-31T14:46:38.660Z,96137.31
2023-01-31T14:49:35.769Z,96132.06
2023-01-31T14:52:21.410Z,96127.78
2023-01-31T14:55:10.485Z,96131.56
2023-01-31T14:57:42.207Z,96124.06
2023-01-31T15:00:21.261Z,96115.28
2023-01-31T15:02:54.948Z,96116.69
2023-01-31T15:05:40.519Z,96120.03
2023-01-31T15:08:35.041Z,96116.19
2023-01-31T15:11:05.360Z,96115.34
2023-01-31T15:13:47.294Z,96111.53
2023-01-31T15:16:21.436Z,96106.22
2023-01-31T15:18:54.124Z,96113.84
2023-01-31T15:21:28.051Z,96109.63
2023-01-31T15:23:57.110Z,96110.44
2023-01-31T15:26:29.700Z,96113.72
2023-01-31T15:28:59.199Z,96115.72
2023-01-31T15:31:32.228Z,96127.34
2023-01-31T15:34:04.987Z,96136.69
2023-01-31T15:36:39.834Z,96133.38
2023-01-31T15:39:21.314Z,96132.41
2023-01-31T15:41:49.451Z,96138.41
2023-01-31T15:44:20.739Z,96147.44
2023-01-31T15:46:50.711Z,96142.06
2023-01-31T15:49:39.207Z,96140.63
2023-01-31T15:52:15.489Z,96147.09
2023-01-31T15:54:53.696Z,96148.34
2023-01-31T15:57:24.068Z,96148.53
2023-01-31T15:59:52.359Z,96161.84
2023-01-31T16:02:26.281Z,96164.41
2023-01-31T16:04:54.690Z,96166.81
2023-01-31T16:07:28.580Z,96165.34
2023-01-31T16:09:58.318Z,96167.44
2023-01-31T16:12:27.237Z,96179.44
2023-01-31T16:14:59.339Z,96186.94
2023-01-31T16:17:28.792Z,96186.94
2023-01-31T16:19:58.310Z,96188.44
2023-01-31T16:22:29.757Z,96185.09
2023-01-31T16:24:59.461Z,96182.69
2023-01-31T16:27:30.032Z,96194.56
2023-01-31T16:29:59.540Z,96205.38
2023-01-31T16:32:30.591Z,96197.41
2023-01-31T16:35:02.162Z,96203.00
2023-01-31T16:37:37.177Z,96205.47
2023-01-31T16:40:11.812Z,96206.97
2023-01-31T16:42:39.840Z,96212.84
2023-01-31T16:45:28.392Z,96193.78
2023-01-31T16:47:56.514Z,96191.81
2023-01-31T16:50:42.557Z,96186.03
2023-01-31T16:53:26.306Z,96176.31
2023-01-31T16:56:22.927Z,96168.88
2023-01-31T16:58:56.425Z,96167.59
2023-01-31T17:01:27.854Z,96170.84
2023-01-31T17:04:18.161Z,96172.13
2023-01-31T17:06:51.036Z,96175.53
2023-01-31T17:09:23.143Z,96174.09
2023-01-31T17:11:51.618Z,96168.22
2023-01-31T17:14:19.694Z,96172.78
2023-01-31T17:16:51.129Z,96178.28
2023-01-31T17:19:19.187Z,96173.72
2023-01-31T17:21:49.844Z,96170.81
2023-01-31T17:24:19.376Z,96177.63
2023-01-31T17:26:48.875Z,96174.06
2023-01-31T17:29:16.979Z,96168.88
2023-01-31T17:31:44.963Z,96181.84
2023-01-31T17:34:14.736Z,96181.84
2023-01-31T17:36:43.232Z,96184.09
2023-01-31T17:39:11.462Z,96184.59
2023-01-31T17:41:41.294Z,96186.53
2023-01-31T17:44:14.559Z,96184.41
2023-01-31T17:46:43.118Z,96192.50
2023-01-31T17:49:11.387Z,96191.50
2023-01-31T17:51:39.493Z,96185.03
2023-01-31T17:54:07.494Z,96183.09
2023-01-31T17:56:36.131Z,96186.66
2023-01-31T17:59:05.763Z,96195.06
2023-01-31T18:01:35.259Z,96192.47
2023-01-31T18:04:04.511Z,96191.22
2023-01-31T18:06:32.653Z,96184.41
2023-01-31T18:09:05.865Z,96187.66
2023-01-31T18:11:34.529Z,96192.81
2023-01-31T18:14:03.933Z,96196.06
2023-01-31T18:16:32.704Z,96195.88
2023-01-31T18:19:02.102Z,96189.88
2023-01-31T18:21:30.121Z,96185.38
2023-01-31T18:23:59.983Z,96187.31
2023-01-31T18:26:28.345Z,96197.31
2023-01-31T18:28:57.676Z,96202.34
2023-01-31T18:31:26.140Z,96197.97
2023-01-31T18:33:54.208Z,96195.38
2023-01-31T18:36:23.940Z,96190.38
2023-01-31T18:38:52.468Z,96194.41
2023-01-31T18:41:22.002Z,96196.00
2023-01-31T18:43:50.581Z,96194.69
2023-01-31T18:46:18.684Z,96201.78
2023-01-31T18:48:46.893Z,96202.44
2023-01-31T18:51:16.404Z,96196.94
2023-01-31T18:53:47.641Z,96200.19
2023-01-31T18:56:17.487Z,96191.78
2023-01-31T18:58:46.641Z,96192.75
2023-01-31T19:01:17.415Z,96192.38
2023-01-31T19:03:46.916Z,96195.94
2023-01-31T19:06:16.084Z,96204.66
2023-01-31T19:08:49.406Z,96200.00
2023-01-31T19:11:19.366Z,96198.88
2023-01-31T19:13:47.771Z,96210.84
2023-01-31T19:16:17.478Z,96204.06
2023-01-31T19:18:46.029Z,96196.59
2023-01-31T19:21:17.917Z,96200.81
2023-01-31T19:23:47.828Z,96206.44
2023-01-31T19:26:17.209Z,96205.59
2023-01-31T19:28:46.519Z,96196.56
2023-01-31T19:31:16.664Z,96201.88
2023-01-31T19:33:50.141Z,96197.84
2023-01-31T19:36:19.725Z,96194.88
2023-01-31T19:38:49.333Z,96196.81
2023-01-31T19:41:19.401Z,96212.31
2023-01-31T19:43:49.086Z,96205.53
2023-01-31T19:46:17.073Z,96200.69
2023-01-31T19:48:45.105Z,96206.16
2023-01-31T19:51:14.935Z,96209.72
2023-01-31T19:53:45.325Z,96222.47
2023-01-31T19:56:15.184Z,96231.03
2023-01-31T19:58:43.456Z,96224.91
2023-01-31T20:01:13.644Z,96228.44
2023-01-31T20:03:41.689Z,96226.22
2023-01-31T20:06:12.115Z,96229.75
2023-01-31T20:08:40.475Z,96233.63
2023-01-31T20:11:09.256Z,96228.44
2023-01-31T20:13:38.737Z,96229.56
2023-01-31T20:16:08.906Z,96240.00
2023-01-31T20:18:38.425Z,96245.16
2023-01-31T20:21:07.769Z,96237.56
2023-01-31T20:23:36.768Z,96229.66
2023-01-31T20:26:04.897Z,96241.63
2023-01-31T20:28:34.358Z,96246.78
2023-01-31T20:31:08.302Z,96241.94
2023-01-31T20:33:36.605Z,96243.53
2023-01-31T20:36:05.307Z,96240.00
2023-01-31T20:38:33.527Z,96245.16
2023-01-31T20:41:01.486Z,96237.47
2023-01-31T20:43:29.515Z,96236.13
2023-01-31T20:46:03.611Z,96237.72
2023-01-31T20:48:33.461Z,96244.16
2023-01-31T20:51:01.567Z,96249.34
2023-01-31T20:53:30.427Z,96252.56
2023-01-31T20:55:59.865Z,96254.81
2023-01-31T20:58:28.831Z,96244.78
2023-01-31T21:00:58.196Z,96240.88
2023-01-31T21:03:26.774Z,96236.97
2023-01-31T21:05:58.428Z,96235.34
2023-01-31T21:08:27.329Z,96235.66
2023-01-31T21:10:57.410Z,96226.16
2023-01-31T21:13:27.936Z,96225.63
2023-01-31T21:15:58.065Z,96235.97
2023-01-31T21:18:28.735Z,96232.72
2023-01-31T21:20:58.389Z,96225.44
2023-01-31T21:23:26.519Z,96232.00
2023-01-31T21:25:54.566Z,96237.47
2023-01-31T21:28:27.215Z,96234.22
2023-01-31T21:30:59.752Z,96239.69
2023-01-31T21:33:29.752Z,96245.16
2023-01-31T21:36:00.779Z,96239.19
2023-01-31T21:38:28.956Z,96228.38
2023-01-31T21:41:10.840Z,96239.66
2023-01-31T21:43:41.352Z,96224.59
2023-01-31T21:46:10.032Z,96228.44
2023-01-31T21:48:38.556Z,96219.88
2023-01-31T21:51:10.068Z,96214.06
2023-01-31T21:53:38.899Z,96217.31
2023-01-31T21:56:09.061Z,96203.75
2023-01-31T21:58:38.433Z,96187.97
2023-01-31T22:01:07.860Z,96189.88
2023-01-31T22:03:36.173Z,96191.31
2023-01-31T22:06:05.362Z,96204.34
2023-01-31T22:08:35.369Z,96214.97
2023-01-31T22:11:04.987Z,96217.56
2023-01-31T22:13:33.654Z,96213.94
2023-01-31T22:16:02.476Z,96211.81
2023-01-31T22:18:32.383Z,96211.59
2023-01-31T22:21:05.329Z,96212.91
2023-01-31T22:23:35.629Z,96213.22
2023-01-31T22:26:05.304Z,96211.34
2023-01-31T22:28:33.739Z,96205.69
2023-01-31T22:31:02.524Z,96210.84
2023-01-31T22:33:31.179Z,96211.66
2023-01-31T22:35:59.577Z,96209.59
2023-01-31T22:38:28.478Z,96210.28
2023-01-31T22:41:00.104Z,96210.56
2023-01-31T22:43:28.997Z,96206.19
2023-01-31T22:45:58.548Z,96197.28
2023-01-31T22:48:27.609Z,96198.91
2023-01-31T22:50:57.136Z,96190.22
2023-01-31T22:53:25.818Z,96189.66
2023-01-31T22:55:54.025Z,96192.59
2023-01-31T22:58:23.439Z,96191.97
2023-01-31T23:00:51.453Z,96200.38
2023-01-31T23:03:19.521Z,96195.53
2023-01-31T23:05:47.526Z,96203.41
2023-01-31T23:08:16.470Z,96202.31
2023-01-31T23:10:45.106Z,96195.22
2023-01-31T23:13:13.678Z,96185.91
2023-01-31T23:15:43.230Z,96188.28
2023-01-31T23:18:11.300Z,96173.75
2023-01-31T23:20:39.251Z,96177.44
2023-01-31T23:23:07.245Z,96180.19
2023-01-31T23:25:35.208Z,96174.72
2023-01-31T23:28:03.537Z,96175.22
2023-01-31T23:30:31.640Z,96170.56
2023-01-31T23:33:01.077Z,96166.72
2023-01-31T23:35:29.200Z,96166.44
2023-01-31T23:37:57.157Z,96164.50
2023-01-31T23:40:25.203Z,96169.97
2023-01-31T23:42:53.171Z,96164.81
2023-01-31T23:45:21.195Z,96155.16
2023-01-31T23:47:50.421Z,96153.06
2023-01-31T23:50:20.658Z,96152.59
2023-01-31T23:52:48.853Z,96156.31
2023-01-31T23:55:18.279Z,96147.41
2023-01-31T23:57:46.745Z,96147.72
